Akram Khan Company

En 2000, le chorégraphe Akram Khan et le producteur Farooq Chaudhry fondent Akram Khan Company. Maître de kathak (danse classique indienne) et chorégraphe contemporain, Akram Khan est loué pour la vitalité et l’innovation qu’il apporte à l’expression interculturelle et interdisciplinaire, questionnant les idées conventionnelles sur la danse traditionnelle ou contemporaine, entre tradition et innovation, entre Orient et Occident.

Son langage chorégraphique, dont les sources d’inspiration traversent les frontières, se distingue par son style narratif, sans faire pour autant de compromis artistiques. Chaque production puise ses racines dans le kathak classique et la danse moderne, pour les faire évoluer de concert.

Ses collaborations précédentes incluent le National Ballet of China, l’actrice Juliette Binoche, la danseuse ballerine Sylvie Guillem, le danseur et chorégraphe Sidi Larbi Cherkaoui et Israel Galván, la chanteuse Kylie Minogue, les artistes visuels Anish Kapoor, Antony Gormley et Tim Yip, l'écrivain Hanif Kureishi ainsi que les compositeurs Steve Reich, Nitin Sawhney, Jocelyn Pook et Ben Frost.

Akram Khan Company a été primée à plusieurs reprises, tout particulièrement pour DESH qui a reçu l’Olivier Award (Best New Dance Production 2012) et le Bessie Award à New York (Outstanding Production 2014). Auparavant, la Compagnie avait reçu entre autres The South Bank Sky Arts Award en 2011 pour Gnosis, le Helpmann Award à Sydney pour la meilleure chorégraphie et le meilleur danseur en 2007 avec zero degrees, ainsi que six UK Critics’ Circle National Dance Awards dont celui de « Best Male Dancer » en 2012. 

Khan est artiste associé à Sadler's Wells, Londres et Curve, Leicester. Les précédentes productions incluent DESH, iTMOi (in the mind of igor), Vertical Road, Gnosis.

-- Quaternaire représente Akram Khan Company en Europe (excepté au Royaume-Uni, Italie, Espagne, aux Pays-Bas et Flandres).

Dates à venir

Date Spectacletrier par ordre croissant Lieu Ville Pays
2018-01-19 00:00:00-2018-01-20 00:00:002018-01-19 00:00:00 2018-01-20 00:00:00 Until the Lions Bonlieu, Scène Nationale Annecy Annecy France
2018-04-04 00:00:00-2018-04-05 00:00:002018-04-04 00:00:00 2018-04-05 00:00:00 Until the Lions La Coursive, scène nationale la Rochelle La Rochelle France
2018-01-19 00:00:00-2018-01-20 00:00:002018-01-19 00:00:00 2018-01-20 00:00:00 Until the Lions Bonlieu, Scène Nationale Annecy Annecy France
2018-04-04 00:00:00-2018-04-05 00:00:002018-04-04 00:00:00 2018-04-05 00:00:00 Until the Lions La Coursive, scène nationale la Rochelle La Rochelle France
2018-05-15 00:00:00-2018-05-17 00:00:002018-05-15 00:00:00 2018-05-17 00:00:00 Chotto Desh Ballet Preljocaj - Pavillon Noir Aix-en-Provence France
2018-05-24 00:00:00-2018-05-25 00:00:002018-05-24 00:00:00 2018-05-25 00:00:00 Chotto Desh Théâtre des Salins Martigues France
2018-05-29 00:00:00-2018-05-30 00:00:002018-05-29 00:00:00 2018-05-30 00:00:00 Chotto Desh La Rose des Vents Villeneuve d'Ascq France
2017-12-20 00:00:00-2017-12-23 00:00:002017-12-20 00:00:00 2017-12-23 00:00:00 Chotto Desh MC2: Grenoble Grenoble France
2018-01-10 00:00:00-2018-01-12 00:00:002018-01-10 00:00:00 2018-01-12 00:00:00 Chotto Desh Château Rouge Annemasse France
2018-01-17 00:00:00-2018-01-19 00:00:002018-01-17 00:00:00 2018-01-19 00:00:00 Chotto Desh Théâtre du Vellein Villefontaine France
2018-01-23 00:00:00-2018-01-23 00:00:00 Chotto Desh Opéra de Limoges Limoges France
2018-04-04 00:00:00-2018-04-06 00:00:002018-04-04 00:00:00 2018-04-06 00:00:00 Chotto Desh La Coursive, scène nationale la Rochelle La Rochelle France
2018-04-10 00:00:00-2018-04-13 00:00:002018-04-10 00:00:00 2018-04-13 00:00:00 Chotto Desh Théâtre de Nîmes Nîmes France
2018-04-20 00:00:00-2018-04-20 00:00:00 Chotto Desh Theater Gütersloh  Gütersloh Allemagne
2018-04-22 00:00:00-2018-04-22 00:00:00 Chotto Desh Forum KulturStadtLev Leverkusen Allemagne
2018-05-03 00:00:00-2018-05-05 00:00:002018-05-03 00:00:00 2018-05-05 00:00:00 Chotto Desh Théâtre Firmin éemier - La Piscine Châtenay-Malabry France
2018-05-06 00:00:00-2018-05-07 00:00:002018-05-06 00:00:00 2018-05-07 00:00:00 Chotto Desh Théâtre du Fil de l'Eau Pantin France
2018-05-12 00:00:00-2018-05-12 00:00:00 Chotto Desh Espace Michel-Simon Noisy-le-Grand France
2018-05-15 00:00:00-2018-05-17 00:00:002018-05-15 00:00:00 2018-05-17 00:00:00 Chotto Desh Ballet Preljocaj - Pavillon Noir Aix-en-Provence France
2018-05-24 00:00:00-2018-05-25 00:00:002018-05-24 00:00:00 2018-05-25 00:00:00 Chotto Desh Théâtre des Salins Martigues France
2018-05-29 00:00:00-2018-05-30 00:00:002018-05-29 00:00:00 2018-05-30 00:00:00 Chotto Desh La Rose des Vents Villeneuve d'Ascq France
2018-01-10 00:00:00-2018-01-12 00:00:002018-01-10 00:00:00 2018-01-12 00:00:00 Chotto Desh Château Rouge Annemasse France
2018-01-17 00:00:00-2018-01-19 00:00:002018-01-17 00:00:00 2018-01-19 00:00:00 Chotto Desh Théâtre du Vellein Villefontaine France
2018-01-23 00:00:00-2018-01-23 00:00:00 Chotto Desh Opéra de Limoges Limoges France
2018-04-04 00:00:00-2018-04-06 00:00:002018-04-04 00:00:00 2018-04-06 00:00:00 Chotto Desh La Coursive, scène nationale la Rochelle La Rochelle France
2018-04-10 00:00:00-2018-04-13 00:00:002018-04-10 00:00:00 2018-04-13 00:00:00 Chotto Desh Théâtre de Nîmes Nîmes France
2018-04-20 00:00:00-2018-04-20 00:00:00 Chotto Desh Theater Gütersloh  Gütersloh Allemagne
2018-04-22 00:00:00-2018-04-22 00:00:00 Chotto Desh Forum KulturStadtLev Leverkusen Allemagne
2018-05-03 00:00:00-2018-05-05 00:00:002018-05-03 00:00:00 2018-05-05 00:00:00 Chotto Desh Théâtre Firmin éemier - La Piscine Châtenay-Malabry France
2018-05-06 00:00:00-2018-05-07 00:00:002018-05-06 00:00:00 2018-05-07 00:00:00 Chotto Desh Théâtre du Fil de l'Eau Pantin France
2018-05-12 00:00:00-2018-05-12 00:00:00 Chotto Desh Espace Michel-Simon Noisy-le-Grand France

Dates passées

Date Spectacletrier par ordre croissant Lieu Ville Pays
2016-01-09 00:00:00-2016-01-24 00:00:002016-01-09 00:00:00 2016-01-24 00:00:00 Until the Lions Roundhouse Londres Royaume-Uni
2016-01-28 00:00:00-2016-01-29 00:00:002016-01-28 00:00:00 2016-01-29 00:00:00 Until the Lions La Comete - scene nationale Chalons-en-Champagne France
2016-04-27 00:00:00-2016-04-30 00:00:002016-04-27 00:00:00 2016-04-30 00:00:00 Until the Lions MC2:Grenoble Grenoble France
2016-04-20 00:00:00-2016-04-23 00:00:002016-04-20 00:00:00 2016-04-23 00:00:00 Until the Lions Movimentos Wolfsburg Allemagne
2016-05-26 00:00:00-2016-05-27 00:00:002016-05-26 00:00:00 2016-05-27 00:00:00 Until the Lions Brighton Festival Brighton Royaume-Uni
2016-06-23 00:00:00-2016-06-25 00:00:002016-06-23 00:00:00 2016-06-25 00:00:00 Until the Lions Holland Festival Amsterdam Pays-Bas
2017-01-20 00:00:00-2017-01-21 00:00:002017-01-20 00:00:00 2017-01-21 00:00:00 Until the Lions Grand Théâtre de Luxembourg Luxembourg Luxembourg
2017-01-25 00:00:00-2017-01-25 00:00:00 Until the Lions Maison de la Culture d'Amiens Amiens France
2017-02-07 00:00:00-2017-02-11 00:00:002017-02-07 00:00:00 2017-02-11 00:00:00 Until the Lions TEAT Champ Fleuri Sainte-Clotilde Ile de la Réunion
2017-02-16 00:00:00-2017-02-16 00:00:00 Until the Lions Centre national de danse contemporaine d'Angers Angers France
2015-12-16 00:00:00-2015-12-20 00:00:002015-12-16 00:00:00 2015-12-20 00:00:00 Chotto Desh DanceEast Ipswich Royaume-Uni
2016-05-03 00:00:00-2016-05-04 00:00:002016-05-03 00:00:00 2016-05-04 00:00:00 Chotto Desh The Lowry Manchester Royaume-Uni
2017-01-19 00:00:00-2017-01-22 00:00:002017-01-19 00:00:00 2017-01-22 00:00:00 Chotto Desh Théâtre Am Stram Gram Genève Swiss
2017-01-26 00:00:00-2017-01-28 00:00:002017-01-26 00:00:00 2017-01-28 00:00:00 Chotto Desh Espace 1789 Saint Ouen France
2017-01-31 00:00:00-2017-01-31 00:00:00 Chotto Desh Théâtre des Bergeries Noisy-le-Sec France
2017-02-02 00:00:00-2017-02-03 00:00:002017-02-02 00:00:00 2017-02-03 00:00:00 Chotto Desh Le Prisme Saint-Quentin-en-Yvelines France
2017-02-07 00:00:00-2017-02-07 00:00:00 Chotto Desh Dansnät Sverige Stockholm Suède
2017-02-09 00:00:00-2017-02-09 00:00:00 Chotto Desh Dansnät Sverige Stockholm Suède
2017-02-11 00:00:00-2017-02-11 00:00:00 Chotto Desh Dansnät Sverige Stockholm Suède
2017-02-14 00:00:00-2017-02-14 00:00:00 Chotto Desh Dansnät Sverige Stockholm Suède
2017-02-16 00:00:00-2017-02-16 00:00:00 Chotto Desh Dansnät Sverige Stockholm Suède
2015-10-23 00:00:00-2015-10-23 00:00:00 Chotto Desh DanceEast Ipswich Royaume-Uni
2015-10-25 00:00:00-2015-10-25 00:00:00 Chotto Desh Arts Depot Londres Royaume-Uni
2017-11-26 00:00:00-2017-11-27 00:00:002017-11-26 00:00:00 2017-11-27 00:00:00 Chotto Desh Centre des Arts d'Enghien Enghien-les-Bains France
2015-10-27 00:00:00-2015-10-27 00:00:00 Chotto Desh Corn Exchange Brighton Royaume-Uni
2017-11-29 00:00:00-2017-11-30 00:00:002017-11-29 00:00:00 2017-11-30 00:00:00 Chotto Desh Théâtre des Feuillants, Association Bourguignonne Culturelle Dijon France
2017-12-06 00:00:00-2017-12-09 00:00:002017-12-06 00:00:00 2017-12-09 00:00:00 Chotto Desh Maison de la Danse de Lyon Lyon France
2015-10-30 00:00:00-2015-10-31 00:00:002015-10-30 00:00:00 2015-10-31 00:00:00 Chotto Desh Sadler's Wells Londres Royaume-Uni
2017-12-12 00:00:00-2017-12-14 00:00:002017-12-12 00:00:00 2017-12-14 00:00:00 Chotto Desh Espace des Arts Châlon-sur-Saône France
2015-11-07 00:00:00-2015-11-08 00:00:002015-11-07 00:00:00 2015-11-08 00:00:00 Chotto Desh Pavilion Dance South West Bournemouth Royaume-Uni
2015-11-12 00:00:00-2015-11-12 00:00:00 Chotto Desh The Core at Corby Cube Corby Royaume-Uni
2015-11-14 00:00:00-2015-11-14 00:00:00 Chotto Desh Lakeside Arts Nottingham Royaume-Uni
2015-11-19 00:00:00-2015-11-19 00:00:00 Chotto Desh Circomedia Bristol Royaume-Uni
2015-11-22 00:00:00-2015-11-22 00:00:00 Chotto Desh The Junction Cambridge Royaume-Uni
2015-11-25 00:00:00-2015-11-25 00:00:00 Chotto Desh Gulbenkian Canterbury Royaume-Uni
2015-11-28 00:00:00-2015-11-28 00:00:00 Chotto Desh Northern School of Contemporary Dance Leeds Royaume-Uni
2015-12-04 00:00:00-2015-12-05 00:00:002015-12-04 00:00:00 2015-12-05 00:00:00 Chotto Desh The Curve Theatre Leicester Royaume-Uni